sensor_id;sensor_type;location;lat;lon;timestamp;temperature;humidity
58519;DHT22;44310;48.106;12.008;2023-03-11T00:00:27;15.60;74.70
58519;DHT22;44310;48.106;12.008;2023-03-11T00:02:56;15.60;75.40
58519;DHT22;44310;48.106;12.008;2023-03-11T00:05:26;15.60;75.60
58519;DHT22;44310;48.106;12.008;2023-03-11T00:07:54;15.60;75.70
58519;DHT22;44310;48.106;12.008;2023-03-11T00:10:28;15.70;75.80
58519;DHT22;44310;48.106;12.008;2023-03-11T00:12:57;15.70;76.10
58519;DHT22;44310;48.106;12.008;2023-03-11T00:15:26;15.70;76.60
58519;DHT22;44310;48.106;12.008;2023-03-11T00:17:54;15.70;76.90
58519;DHT22;44310;48.106;12.008;2023-03-11T00:20:27;15.70;77.20
58519;DHT22;44310;48.106;12.008;2023-03-11T00:22:55;15.70;77.60
58519;DHT22;44310;48.106;12.008;2023-03-11T00:25:24;15.70;77.90
58519;DHT22;44310;48.106;12.008;2023-03-11T00:27:52;15.30;77.90
58519;DHT22;44310;48.106;12.008;2023-03-11T00:30:20;15.80;78.50
58519;DHT22;44310;48.106;12.008;2023-03-11T00:32:48;15.80;78.40
58519;DHT22;44310;48.106;12.008;2023-03-11T00:35:20;15.70;78.30
58519;DHT22;44310;48.106;12.008;2023-03-11T00:37:48;15.70;78.40
58519;DHT22;44310;48.106;12.008;2023-03-11T00:40:22;15.70;78.50
58519;DHT22;44310;48.106;12.008;2023-03-11T00:42:50;15.70;78.20
58519;DHT22;44310;48.106;12.008;2023-03-11T00:45:17;15.60;78.20
58519;DHT22;44310;48.106;12.008;2023-03-11T00:47:44;15.60;78.50
58519;DHT22;44310;48.106;12.008;2023-03-11T00:50:15;15.70;79.20
58519;DHT22;44310;48.106;12.008;2023-03-11T00:52:45;15.70;79.40
58519;DHT22;44310;48.106;12.008;2023-03-11T00:55:15;15.70;79.20
58519;DHT22;44310;48.106;12.008;2023-03-11T00:57:43;15.60;78.30
58519;DHT22;44310;48.106;12.008;2023-03-11T01:00:15;15.60;78.80
58519;DHT22;44310;48.106;12.008;2023-03-11T01:02:43;15.60;79.50
58519;DHT22;44310;48.106;12.008;2023-03-11T01:05:10;15.60;78.80
58519;DHT22;44310;48.106;12.008;2023-03-11T01:07:40;15.60;78.70
58519;DHT22;44310;48.106;12.008;2023-03-11T01:10:08;15.60;78.40
58519;DHT22;44310;48.106;12.008;2023-03-11T01:12:36;15.60;78.50
58519;DHT22;44310;48.106;12.008;2023-03-11T01:15:03;15.60;78.40
58519;DHT22;44310;48.106;12.008;2023-03-11T01:17:30;15.50;77.90
58519;DHT22;44310;48.106;12.008;2023-03-11T01:20:00;15.50;77.90
58519;DHT22;44310;48.106;12.008;2023-03-11T01:22:29;15.40;77.90
58519;DHT22;44310;48.106;12.008;2023-03-11T01:24:56;15.60;78.30
58519;DHT22;44310;48.106;12.008;2023-03-11T01:27:23;15.40;78.00
58519;DHT22;44310;48.106;12.008;2023-03-11T01:29:51;15.40;78.00
58519;DHT22;44310;48.106;12.008;2023-03-11T01:32:18;15.40;77.90
58519;DHT22;44310;48.106;12.008;2023-03-11T01:34:45;15.40;77.60
58519;DHT22;44310;48.106;12.008;2023-03-11T01:37:12;15.40;77.40
58519;DHT22;44310;48.106;12.008;2023-03-11T01:39:39;15.30;77.20
58519;DHT22;44310;48.106;12.008;2023-03-11T01:42:09;15.30;77.20
58519;DHT22;44310;48.106;12.008;2023-03-11T01:44:36;15.30;77.40
58519;DHT22;44310;48.106;12.008;2023-03-11T01:49:30;15.40;77.70
58519;DHT22;44310;48.106;12.008;2023-03-11T01:52:02;15.40;77.40
58519;DHT22;44310;48.106;12.008;2023-03-11T01:54:35;15.70;77.30
58519;DHT22;44310;48.106;12.008;2023-03-11T01:57:08;15.40;77.20
58519;DHT22;44310;48.106;12.008;2023-03-11T01:59:45;15.40;77.40
58519;DHT22;44310;48.106;12.008;2023-03-11T02:04:44;15.40;77.30
58519;DHT22;44310;48.106;12.008;2023-03-11T02:07:13;15.50;77.10
58519;DHT22;44310;48.106;12.008;2023-03-11T02:09:41;15.50;77.40
58519;DHT22;44310;48.106;12.008;2023-03-11T02:12:10;15.50;77.30
58519;DHT22;44310;48.106;12.008;2023-03-11T02:14:42;15.50;77.00
58519;DHT22;44310;48.106;12.008;2023-03-11T02:17:11;15.50;76.70
58519;DHT22;44310;48.106;12.008;2023-03-11T02:22:42;15.40;75.40
58519;DHT22;44310;48.106;12.008;2023-03-11T02:25:31;15.40;75.40
58519;DHT22;44310;48.106;12.008;2023-03-11T02:28:02;15.40;75.80
58519;DHT22;44310;48.106;12.008;2023-03-11T02:30:33;15.40;75.10
58519;DHT22;44310;48.106;12.008;2023-03-11T02:33:01;15.40;75.30
58519;DHT22;44310;48.106;12.008;2023-03-11T02:35:29;15.50;76.40
58519;DHT22;44310;48.106;12.008;2023-03-11T02:37:57;15.30;76.70
58519;DHT22;44310;48.106;12.008;2023-03-11T02:42:59;15.50;76.80
58519;DHT22;44310;48.106;12.008;2023-03-11T02:45:27;15.60;76.90
58519;DHT22;44310;48.106;12.008;2023-03-11T02:47:57;15.60;76.80
58519;DHT22;44310;48.106;12.008;2023-03-11T02:50:27;15.60;76.70
58519;DHT22;44310;48.106;12.008;2023-03-11T02:52:55;15.60;76.60
58519;DHT22;44310;48.106;12.008;2023-03-11T02:55:22;15.60;76.20
58519;DHT22;44310;48.106;12.008;2023-03-11T02:57:49;15.50;76.10
58519;DHT22;44310;48.106;12.008;2023-03-11T03:00:17;15.50;76.30
58519;DHT22;44310;48.106;12.008;2023-03-11T03:02:44;15.50;76.10
58519;DHT22;44310;48.106;12.008;2023-03-11T03:05:12;15.50;75.90
58519;DHT22;44310;48.106;12.008;2023-03-11T03:07:39;15.10;75.60
58519;DHT22;44310;48.106;12.008;2023-03-11T03:10:07;15.40;75.70
58519;DHT22;44310;48.106;12.008;2023-03-11T03:12:34;15.40;75.60
58519;DHT22;44310;48.106;12.008;2023-03-11T03:15:02;15.80;76.10
58519;DHT22;44310;48.106;12.008;2023-03-11T03:17:29;15.40;75.60
58519;DHT22;44310;48.106;12.008;2023-03-11T03:19:56;15.30;75.20
58519;DHT22;44310;48.106;12.008;2023-03-11T03:22:23;15.30;75.30
58519;DHT22;44310;48.106;12.008;2023-03-11T03:24:55;15.30;75.10
58519;DHT22;44310;48.106;12.008;2023-03-11T03:27:22;15.30;75.00
58519;DHT22;44310;48.106;12.008;2023-03-11T03:29:49;15.30;74.90
58519;DHT22;44310;48.106;12.008;2023-03-11T03:32:16;15.30;75.00
58519;DHT22;44310;48.106;12.008;2023-03-11T03:34:43;15.30;74.80
58519;DHT22;44310;48.106;12.008;2023-03-11T03:37:10;15.30;74.80
58519;DHT22;44310;48.106;12.008;2023-03-11T03:39:37;15.30;75.00
58519;DHT22;44310;48.106;12.008;2023-03-11T03:42:05;15.30;75.10
58519;DHT22;44310;48.106;12.008;2023-03-11T03:44:32;15.30;74.80
58519;DHT22;44310;48.106;12.008;2023-03-11T03:46:59;15.30;74.60
58519;DHT22;44310;48.106;12.008;2023-03-11T03:49:26;15.40;75.20
58519;DHT22;44310;48.106;12.008;2023-03-11T03:51:53;15.30;75.30
58519;DHT22;44310;48.106;12.008;2023-03-11T03:54:20;15.40;75.80
58519;DHT22;44310;48.106;12.008;2023-03-11T03:56:47;15.40;75.90
58519;DHT22;44310;48.106;12.008;2023-03-11T03:59:15;15.40;75.80
58519;DHT22;44310;48.106;12.008;2023-03-11T04:01:42;15.40;75.50
58519;DHT22;44310;48.106;12.008;2023-03-11T04:04:09;15.50;75.40
58519;DHT22;44310;48.106;12.008;2023-03-11T04:06:36;15.00;75.10
58519;DHT22;44310;48.106;12.008;2023-03-11T04:09:03;15.50;75.40
58519;DHT22;44310;48.106;12.008;2023-03-11T04:11:31;15.50;75.20
58519;DHT22;44310;48.106;12.008;2023-03-11T04:14:00;15.40;74.60
58519;DHT22;44310;48.106;12.008;2023-03-11T04:16:28;15.50;74.60
58519;DHT22;44310;48.106;12.008;2023-03-11T04:18:56;15.50;74.70
58519;DHT22;44310;48.106;12.008;2023-03-11T04:21:23;15.50;74.70
58519;DHT22;44310;48.106;12.008;2023-03-11T04:23:50;15.50;74.50
58519;DHT22;44310;48.106;12.008;2023-03-11T04:26:17;14.90;74.10
58519;DHT22;44310;48.106;12.008;2023-03-11T04:28:44;15.40;74.20
58519;DHT22;44310;48.106;12.008;2023-03-11T04:31:14;15.40;74.20
58519;DHT22;44310;48.106;12.008;2023-03-11T04:33:41;15.30;73.70
58519;DHT22;44310;48.106;12.008;2023-03-11T04:36:09;15.30;73.60
58519;DHT22;44310;48.106;12.008;2023-03-11T04:38:36;15.30;73.40
58519;DHT22;44310;48.106;12.008;2023-03-11T04:41:05;15.30;73.30
58519;DHT22;44310;48.106;12.008;2023-03-11T04:43:33;15.40;73.60
58519;DHT22;44310;48.106;12.008;2023-03-11T04:46:00;15.40;74.50
58519;DHT22;44310;48.106;12.008;2023-03-11T04:48:27;15.50;74.90
58519;DHT22;44310;48.106;12.008;2023-03-11T04:50:54;15.50;74.90
58519;DHT22;44310;48.106;12.008;2023-03-11T04:53:22;15.40;74.90
58519;DHT22;44310;48.106;12.008;2023-03-11T04:55:50;15.60;75.60
58519;DHT22;44310;48.106;12.008;2023-03-11T04:58:18;15.60;75.60
58519;DHT22;44310;48.106;12.008;2023-03-11T05:00:45;15.60;75.30
58519;DHT22;44310;48.106;12.008;2023-03-11T05:03:13;15.60;75.20
58519;DHT22;44310;48.106;12.008;2023-03-11T05:05:40;15.60;75.20
58519;DHT22;44310;48.106;12.008;2023-03-11T05:08:07;15.60;75.60
58519;DHT22;44310;48.106;12.008;2023-03-11T05:10:34;15.50;75.20
58519;DHT22;44310;48.106;12.008;2023-03-11T05:13:02;15.50;74.70
58519;DHT22;44310;48.106;12.008;2023-03-11T05:15:29;15.40;74.60
58519;DHT22;44310;48.106;12.008;2023-03-11T05:17:57;15.40;74.50
58519;DHT22;44310;48.106;12.008;2023-03-11T05:20:24;15.40;74.50
58519;DHT22;44310;48.106;12.008;2023-03-11T05:22:51;15.40;74.70
58519;DHT22;44310;48.106;12.008;2023-03-11T05:25:19;15.40;74.70
58519;DHT22;44310;48.106;12.008;2023-03-11T05:27:46;15.40;74.80
58519;DHT22;44310;48.106;12.008;2023-03-11T05:30:13;15.30;74.70
58519;DHT22;44310;48.106;12.008;2023-03-11T05:32:41;15.30;74.50
58519;DHT22;44310;48.106;12.008;2023-03-11T05:35:08;15.30;74.60
58519;DHT22;44310;48.106;12.008;2023-03-11T05:37:35;15.30;74.80
58519;DHT22;44310;48.106;12.008;2023-03-11T05:40:06;15.30;74.90
58519;DHT22;44310;48.106;12.008;2023-03-11T05:42:34;15.30;74.80
58519;DHT22;44310;48.106;12.008;2023-03-11T05:45:01;15.40;75.40
58519;DHT22;44310;48.106;12.008;2023-03-11T05:47:28;15.40;75.70
58519;DHT22;44310;48.106;12.008;2023-03-11T05:49:55;15.50;75.90
58519;DHT22;44310;48.106;12.008;2023-03-11T05:52:22;15.40;75.60
58519;DHT22;44310;48.106;12.008;2023-03-11T05:54:50;15.40;75.40
58519;DHT22;44310;48.106;12.008;2023-03-11T05:57:18;15.50;75.40
58519;DHT22;44310;48.106;12.008;2023-03-11T05:59:45;16.10;75.60
58519;DHT22;44310;48.106;12.008;2023-03-11T06:02:12;15.50;75.10
58519;DHT22;44310;48.106;12.008;2023-03-11T06:04:39;15.50;74.90
58519;DHT22;44310;48.106;12.008;2023-03-11T06:07:07;15.50;74.80
58519;DHT22;44310;48.106;12.008;2023-03-11T06:09:34;15.50;74.50
58519;DHT22;44310;48.106;12.008;2023-03-11T06:12:03;15.50;74.50
58519;DHT22;44310;48.106;12.008;2023-03-11T06:14:30;15.50;74.50
58519;DHT22;44310;48.106;12.008;2023-03-11T06:16:58;15.50;74.50
58519;DHT22;44310;48.106;12.008;2023-03-11T06:19:25;15.50;74.50
58519;DHT22;44310;48.106;12.008;2023-03-11T06:21:53;15.50;74.30
58519;DHT22;44310;48.106;12.008;2023-03-11T06:24:20;15.50;74.10
58519;DHT22;44310;48.106;12.008;2023-03-11T06:26:50;15.40;73.90
58519;DHT22;44310;48.106;12.008;2023-03-11T06:29:18;15.50;74.00
58519;DHT22;44310;48.106;12.008;2023-03-11T06:31:45;15.50;73.70
58519;DHT22;44310;48.106;12.008;2023-03-11T06:34:12;15.40;73.70
58519;DHT22;44310;48.106;12.008;2023-03-11T06:36:39;15.50;73.00
58519;DHT22;44310;48.106;12.008;2023-03-11T06:39:07;15.40;73.00
58519;DHT22;44310;48.106;12.008;2023-03-11T06:41:34;15.50;73.00
58519;DHT22;44310;48.106;12.008;2023-03-11T06:44:02;15.50;73.20
58519;DHT22;44310;48.106;12.008;2023-03-11T06:46:30;15.90;73.50
58519;DHT22;44310;48.106;12.008;2023-03-11T06:48:57;15.50;73.10
58519;DHT22;44310;48.106;12.008;2023-03-11T06:51:24;15.50;73.10
58519;DHT22;44310;48.106;12.008;2023-03-11T06:53:52;15.50;73.00
58519;DHT22;44310;48.106;12.008;2023-03-11T06:56:21;15.50;72.70
58519;DHT22;44310;48.106;12.008;2023-03-11T06:58:48;15.50;73.00
58519;DHT22;44310;48.106;12.008;2023-03-11T07:01:23;15.50;72.80
58519;DHT22;44310;48.106;12.008;2023-03-11T07:03:51;15.60;72.80
58519;DHT22;44310;48.106;12.008;2023-03-11T07:06:22;15.50;72.80
58519;DHT22;44310;48.106;12.008;2023-03-11T07:08:50;15.50;72.50
58519;DHT22;44310;48.106;12.008;2023-03-11T07:11:22;15.50;72.60
58519;DHT22;44310;48.106;12.008;2023-03-11T07:13:50;15.50;72.60
58519;DHT22;44310;48.106;12.008;2023-03-11T07:16:23;15.40;72.30
58519;DHT22;44310;48.106;12.008;2023-03-11T07:18:52;15.50;72.40
58519;DHT22;44310;48.106;12.008;2023-03-11T07:21:21;15.40;72.90
58519;DHT22;44310;48.106;12.008;2023-03-11T07:23:56;15.40;72.10
58519;DHT22;44310;48.106;12.008;2023-03-11T07:26:25;15.40;72.10
58519;DHT22;44310;48.106;12.008;2023-03-11T07:28:56;15.50;73.10
58519;DHT22;44310;48.106;12.008;2023-03-11T07:31:28;15.50;72.90
58519;DHT22;44310;48.106;12.008;2023-03-11T07:33:58;15.50;72.70
58519;DHT22;44310;48.106;12.008;2023-03-11T07:36:26;15.50;72.40
58519;DHT22;44310;48.106;12.008;2023-03-11T07:38:59;15.50;72.00
58519;DHT22;44310;48.106;12.008;2023-03-11T07:41:32;15.50;71.80
58519;DHT22;44310;48.106;12.008;2023-03-11T07:44:01;15.50;71.70
58519;DHT22;44310;48.106;12.008;2023-03-11T07:46:29;15.50;71.50
58519;DHT22;44310;48.106;12.008;2023-03-11T07:48:56;15.50;71.40
58519;DHT22;44310;48.106;12.008;2023-03-11T07:51:26;15.50;71.00
58519;DHT22;44310;48.106;12.008;2023-03-11T07:53:55;15.50;70.80
58519;DHT22;44310;48.106;12.008;2023-03-11T07:56:24;15.50;70.80
58519;DHT22;44310;48.106;12.008;2023-03-11T07:58:52;15.40;71.10
58519;DHT22;44310;48.106;12.008;2023-03-11T08:01:24;15.50;70.60
58519;DHT22;44310;48.106;12.008;2023-03-11T08:03:53;15.50;70.70
58519;DHT22;44310;48.106;12.008;2023-03-11T08:06:27;15.50;70.80
58519;DHT22;44310;48.106;12.008;2023-03-11T08:08:58;15.50;70.60
58519;DHT22;44310;48.106;12.008;2023-03-11T08:11:26;15.50;70.50
58519;DHT22;44310;48.106;12.008;2023-03-11T08:13:53;15.50;70.30
58519;DHT22;44310;48.106;12.008;2023-03-11T08:16:21;15.50;70.20
58519;DHT22;44310;48.106;12.008;2023-03-11T08:18:49;15.60;70.10
58519;DHT22;44310;48.106;12.008;2023-03-11T08:21:20;15.50;70.10
58519;DHT22;44310;48.106;12.008;2023-03-11T08:23:48;15.50;70.30
58519;DHT22;44310;48.106;12.008;2023-03-11T08:26:20;15.60;70.30
58519;DHT22;44310;48.106;12.008;2023-03-11T08:28:48;15.50;70.30
58519;DHT22;44310;48.106;12.008;2023-03-11T08:31:16;15.50;70.50
58519;DHT22;44310;48.106;12.008;2023-03-11T08:33:46;15.60;70.70
58519;DHT22;44310;48.106;12.008;2023-03-11T08:36:19;15.60;70.90
58519;DHT22;44310;48.106;12.008;2023-03-11T08:38:49;15.60;71.00
58519;DHT22;44310;48.106;12.008;2023-03-11T08:41:16;15.60;71.00
58519;DHT22;44310;48.106;12.008;2023-03-11T08:43:47;15.60;71.10
58519;DHT22;44310;48.106;12.008;2023-03-11T08:46:24;15.60;71.40
58519;DHT22;44310;48.106;12.008;2023-03-11T08:48:52;15.60;71.60
58519;DHT22;44310;48.106;12.008;2023-03-11T08:51:24;15.60;71.90
58519;DHT22;44310;48.106;12.008;2023-03-11T08:53:52;15.50;72.10
58519;DHT22;44310;48.106;12.008;2023-03-11T08:56:20;16.00;72.10
58519;DHT22;44310;48.106;12.008;2023-03-11T08:58:47;15.50;71.50
58519;DHT22;44310;48.106;12.008;2023-03-11T09:01:15;15.30;71.30
58519;DHT22;44310;48.106;12.008;2023-03-11T09:03:46;16.10;71.60
58519;DHT22;44310;48.106;12.008;2023-03-11T09:06:14;15.60;71.30
58519;DHT22;44310;48.106;12.008;2023-03-11T09:08:43;15.60;71.40
58519;DHT22;44310;48.106;12.008;2023-03-11T09:11:10;15.60;71.70
58519;DHT22;44310;48.106;12.008;2023-03-11T09:13:40;15.60;71.90
58519;DHT22;44310;48.106;12.008;2023-03-11T09:16:16;15.60;71.80
58519;DHT22;44310;48.106;12.008;2023-03-11T09:18:44;15.60;71.50
58519;DHT22;44310;48.106;12.008;2023-03-11T09:21:11;15.50;70.80
58519;DHT22;44310;48.106;12.008;2023-03-11T09:23:39;15.50;71.60
58519;DHT22;44310;48.106;12.008;2023-03-11T09:26:10;15.50;71.50
58519;DHT22;44310;48.106;12.008;2023-03-11T09:28:38;15.60;72.50
58519;DHT22;44310;48.106;12.008;2023-03-11T09:31:06;15.60;73.10
58519;DHT22;44310;48.106;12.008;2023-03-11T09:33:40;15.60;73.20
58519;DHT22;44310;48.106;12.008;2023-03-11T09:36:14;15.60;73.30
58519;DHT22;44310;48.106;12.008;2023-03-11T09:38:42;15.60;73.20
58519;DHT22;44310;48.106;12.008;2023-03-11T09:41:33;15.20;73.50
58519;DHT22;44310;48.106;12.008;2023-03-11T09:44:36;15.70;73.50
58519;DHT22;44310;48.106;12.008;2023-03-11T09:47:36;16.80;74.40
58519;DHT22;44310;48.106;12.008;2023-03-11T09:55:38;15.70;74.30
58519;DHT22;44310;48.106;12.008;2023-03-11T09:58:40;15.70;74.00
58519;DHT22;44310;48.106;12.008;2023-03-11T10:01:33;15.70;73.80
58519;DHT22;44310;48.106;12.008;2023-03-11T10:04:12;15.60;73.80
58519;DHT22;44310;48.106;12.008;2023-03-11T10:06:43;15.60;73.60
58519;DHT22;44310;48.106;12.008;2023-03-11T10:09:43;15.00;73.40
58519;DHT22;44310;48.106;12.008;2023-03-11T10:18:00;15.60;73.80
58519;DHT22;44310;48.106;12.008;2023-03-11T10:26:17;15.60;73.60
58519;DHT22;44310;48.106;12.008;2023-03-11T10:28:50;15.60;73.50
58519;DHT22;44310;48.106;12.008;2023-03-11T10:32:03;15.60;73.20
58519;DHT22;44310;48.106;12.008;2023-03-11T10:34:58;15.60;73.20
58519;DHT22;44310;48.106;12.008;2023-03-11T10:37:31;15.60;73.60
58519;DHT22;44310;48.106;12.008;2023-03-11T10:40:31;15.20;73.30
58519;DHT22;44310;48.106;12.008;2023-03-11T10:43:02;15.60;73.60
58519;DHT22;44310;48.106;12.008;2023-03-11T10:45:36;15.60;73.40
58519;DHT22;44310;48.106;12.008;2023-03-11T10:48:12;16.00;73.60
58519;DHT22;44310;48.106;12.008;2023-03-11T10:50:56;15.60;73.00
58519;DHT22;44310;48.106;12.008;2023-03-11T10:53:26;15.60;73.30
58519;DHT22;44310;48.106;12.008;2023-03-11T10:55:57;15.60;73.20
58519;DHT22;44310;48.106;12.008;2023-03-11T10:58:27;15.60;73.00
58519;DHT22;44310;48.106;12.008;2023-03-11T11:01:16;15.60;73.00
58519;DHT22;44310;48.106;12.008;2023-03-11T11:03:45;15.60;73.10
58519;DHT22;44310;48.106;12.008;2023-03-11T11:11:32;15.60;73.20
58519;DHT22;44310;48.106;12.008;2023-03-11T11:14:02;15.60;73.30
58519;DHT22;44310;48.106;12.008;2023-03-11T11:16:32;15.60;73.50
58519;DHT22;44310;48.106;12.008;2023-03-11T11:19:08;15.60;73.60
58519;DHT22;44310;48.106;12.008;2023-03-11T11:21:46;15.40;73.60
58519;DHT22;44310;48.106;12.008;2023-03-11T11:24:27;15.60;73.60
58519;DHT22;44310;48.106;12.008;2023-03-11T11:27:15;15.60;73.50
58519;DHT22;44310;48.106;12.008;2023-03-11T11:29:43;15.60;73.70
58519;DHT22;44310;48.106;12.008;2023-03-11T11:32:23;15.60;73.90
58519;DHT22;44310;48.106;12.008;2023-03-11T11:34:57;15.70;73.80
58519;DHT22;44310;48.106;12.008;2023-03-11T11:37:31;15.70;73.60
58519;DHT22;44310;48.106;12.008;2023-03-11T11:40:16;15.60;73.20
58519;DHT22;44310;48.106;12.008;2023-03-11T11:42:48;15.60;72.90
58519;DHT22;44310;48.106;12.008;2023-03-11T11:45:33;15.60;72.40
58519;DHT22;44310;48.106;12.008;2023-03-11T11:48:22;15.70;72.70
58519;DHT22;44310;48.106;12.008;2023-03-11T11:50:54;15.60;72.50
58519;DHT22;44310;48.106;12.008;2023-03-11T11:54:32;15.70;72.60
58519;DHT22;44310;48.106;12.008;2023-03-11T11:56:33;15.70;72.70
58519;DHT22;44310;48.106;12.008;2023-03-11T11:59:00;15.70;72.90
58519;DHT22;44310;48.106;12.008;2023-03-11T12:04:51;15.70;73.20
58519;DHT22;44310;48.106;12.008;2023-03-11T12:13:08;15.70;72.80
58519;DHT22;44310;48.106;12.008;2023-03-11T12:16:10;15.70;72.60
58519;DHT22;44310;48.106;12.008;2023-03-11T12:30:49;15.70;71.50
58519;DHT22;44310;48.106;12.008;2023-03-11T12:33:40;15.70;71.40
58519;DHT22;44310;48.106;12.008;2023-03-11T12:36:24;15.70;71.40
58519;DHT22;44310;48.106;12.008;2023-03-11T12:38:55;15.70;71.30
58519;DHT22;44310;48.106;12.008;2023-03-11T12:41:39;15.80;71.50
58519;DHT22;44310;48.106;12.008;2023-03-11T12:49:51;15.70;71.20
58519;DHT22;44310;48.106;12.008;2023-03-11T12:52:31;15.70;71.40
58519;DHT22;44310;48.106;12.008;2023-03-11T12:55:24;15.70;71.40
58519;DHT22;44310;48.106;12.008;2023-03-11T12:58:00;15.70;71.60
58519;DHT22;44310;48.106;12.008;2023-03-11T13:00:52;15.70;71.50
58519;DHT22;44310;48.106;12.008;2023-03-11T13:03:33;15.70;71.00
58519;DHT22;44310;48.106;12.008;2023-03-11T13:06:48;15.70;70.70
58519;DHT22;44310;48.106;12.008;2023-03-11T13:09:19;15.70;66.50
58519;DHT22;44310;48.106;12.008;2023-03-11T13:11:48;15.50;67.80
58519;DHT22;44310;48.106;12.008;2023-03-11T13:14:34;15.20;69.00
58519;DHT22;44310;48.106;12.008;2023-03-11T13:17:27;15.60;68.70
58519;DHT22;44310;48.106;12.008;2023-03-11T13:19:57;15.60;66.80
58519;DHT22;44310;48.106;12.008;2023-03-11T13:25:37;15.30;63.60
58519;DHT22;44310;48.106;12.008;2023-03-11T13:42:19;15.50;66.10
58519;DHT22;44310;48.106;12.008;2023-03-11T13:44:48;15.60;65.30
58519;DHT22;44310;48.106;12.008;2023-03-11T13:47:17;15.60;65.90
58519;DHT22;44310;48.106;12.008;2023-03-11T13:50:03;15.50;66.70
58519;DHT22;44310;48.106;12.008;2023-03-11T13:52:35;15.40;65.40
58519;DHT22;44310;48.106;12.008;2023-03-11T13:55:08;15.20;64.20
58519;DHT22;44310;48.106;12.008;2023-03-11T13:57:55;15.10;62.90
58519;DHT22;44310;48.106;12.008;2023-03-11T14:00:27;15.10;63.40
58519;DHT22;44310;48.106;12.008;2023-03-11T14:03:01;15.10;64.10
58519;DHT22;44310;48.106;12.008;2023-03-11T14:05:31;15.10;64.00
58519;DHT22;44310;48.106;12.008;2023-03-11T14:08:22;15.20;64.60
58519;DHT22;44310;48.106;12.008;2023-03-11T14:13:32;15.00;64.20
58519;DHT22;44310;48.106;12.008;2023-03-11T14:16:01;14.90;62.40
58519;DHT22;44310;48.106;12.008;2023-03-11T14:21:00;15.00;63.30
58519;DHT22;44310;48.106;12.008;2023-03-11T14:23:32;15.00;62.70
58519;DHT22;44310;48.106;12.008;2023-03-11T14:26:04;15.30;62.70
58519;DHT22;44310;48.106;12.008;2023-03-11T14:28:37;15.10;62.10
58519;DHT22;44310;48.106;12.008;2023-03-11T14:31:06;15.10;62.70
58519;DHT22;44310;48.106;12.008;2023-03-11T14:33:34;15.20;63.70
58519;DHT22;44310;48.106;12.008;2023-03-11T14:36:03;15.20;64.10
58519;DHT22;44310;48.106;12.008;2023-03-11T14:38:32;15.20;64.60
58519;DHT22;44310;48.106;12.008;2023-03-11T14:41:03;15.30;64.80
58519;DHT22;44310;48.106;12.008;2023-03-11T14:43:38;15.30;63.90
58519;DHT22;44310;48.106;12.008;2023-03-11T14:46:07;15.30;63.50
58519;DHT22;44310;48.106;12.008;2023-03-11T14:48:39;14.80;63.40
58519;DHT22;44310;48.106;12.008;2023-03-11T14:51:15;15.30;64.10
58519;DHT22;44310;48.106;12.008;2023-03-11T14:53:54;15.20;64.80
58519;DHT22;44310;48.106;12.008;2023-03-11T14:56:25;15.20;65.40
58519;DHT22;44310;48.106;12.008;2023-03-11T14:59:19;15.20;65.60
58519;DHT22;44310;48.106;12.008;2023-03-11T15:01:58;15.30;66.30
58519;DHT22;44310;48.106;12.008;2023-03-11T15:04:33;15.20;66.50
58519;DHT22;44310;48.106;12.008;2023-03-11T15:07:03;15.20;66.30
58519;DHT22;44310;48.106;12.008;2023-03-11T15:09:31;15.20;66.40
58519;DHT22;44310;48.106;12.008;2023-03-11T15:12:01;15.20;67.00
58519;DHT22;44310;48.106;12.008;2023-03-11T15:14:36;15.20;67.30
58519;DHT22;44310;48.106;12.008;2023-03-11T15:17:15;15.30;67.80
58519;DHT22;44310;48.106;12.008;2023-03-11T15:20:03;15.30;67.80
58519;DHT22;44310;48.106;12.008;2023-03-11T15:22:37;15.20;68.30
58519;DHT22;44310;48.106;12.008;2023-03-11T15:25:17;14.90;68.60
58519;DHT22;44310;48.106;12.008;2023-03-11T15:27:49;15.20;68.90
58519;DHT22;44310;48.106;12.008;2023-03-11T15:30:27;15.20;69.40
58519;DHT22;44310;48.106;12.008;2023-03-11T15:32:56;15.20;69.20
58519;DHT22;44310;48.106;12.008;2023-03-11T15:35:28;15.20;69.30
58519;DHT22;44310;48.106;12.008;2023-03-11T15:38:19;15.20;69.80
58519;DHT22;44310;48.106;12.008;2023-03-11T15:40:52;15.10;69.90
58519;DHT22;44310;48.106;12.008;2023-03-11T15:43:46;15.10;69.80
58519;DHT22;44310;48.106;12.008;2023-03-11T15:46:14;15.10;69.70
58519;DHT22;44310;48.106;12.008;2023-03-11T15:48:41;15.20;69.90
58519;DHT22;44310;48.106;12.008;2023-03-11T15:51:19;15.10;69.70
58519;DHT22;44310;48.106;12.008;2023-03-11T15:53:46;15.10;69.70
58519;DHT22;44310;48.106;12.008;2023-03-11T15:56:23;15.10;69.70
58519;DHT22;44310;48.106;12.008;2023-03-11T15:58:50;15.00;70.00
58519;DHT22;44310;48.106;12.008;2023-03-11T16:01:20;15.10;70.50
58519;DHT22;44310;48.106;12.008;2023-03-11T16:03:54;15.00;70.80
58519;DHT22;44310;48.106;12.008;2023-03-11T16:06:22;15.10;71.60
58519;DHT22;44310;48.106;12.008;2023-03-11T16:08:49;15.10;71.30
58519;DHT22;44310;48.106;12.008;2023-03-11T16:11:16;15.20;71.20
58519;DHT22;44310;48.106;12.008;2023-03-11T16:13:44;15.10;71.70
58519;DHT22;44310;48.106;12.008;2023-03-11T16:16:15;15.10;71.80
58519;DHT22;44310;48.106;12.008;2023-03-11T16:18:43;15.10;71.70
58519;DHT22;44310;48.106;12.008;2023-03-11T16:21:16;15.00;71.50
58519;DHT22;44310;48.106;12.008;2023-03-11T16:23:43;15.10;71.50
58519;DHT22;44310;48.106;12.008;2023-03-11T16:26:18;15.00;71.30
58519;DHT22;44310;48.106;12.008;2023-03-11T16:28:47;15.00;71.50
58519;DHT22;44310;48.106;12.008;2023-03-11T16:31:14;15.20;71.60
58519;DHT22;44310;48.106;12.008;2023-03-11T16:33:41;15.10;71.50
58519;DHT22;44310;48.106;12.008;2023-03-11T16:36:10;15.00;71.20
58519;DHT22;44310;48.106;12.008;2023-03-11T16:38:43;15.00;70.60
58519;DHT22;44310;48.106;12.008;2023-03-11T16:41:11;15.00;70.00
58519;DHT22;44310;48.106;12.008;2023-03-11T16:43:38;15.00;68.40
58519;DHT22;44310;48.106;12.008;2023-03-11T16:46:05;15.00;68.20
58519;DHT22;44310;48.106;12.008;2023-03-11T16:48:38;15.10;68.00
58519;DHT22;44310;48.106;12.008;2023-03-11T16:51:05;15.10;67.60
58519;DHT22;44310;48.106;12.008;2023-03-11T16:53:32;15.20;67.60
58519;DHT22;44310;48.106;12.008;2023-03-11T16:55:59;15.20;67.90
58519;DHT22;44310;48.106;12.008;2023-03-11T16:58:26;15.30;67.70
58519;DHT22;44310;48.106;12.008;2023-03-11T17:00:53;15.10;67.60
58519;DHT22;44310;48.106;12.008;2023-03-11T17:03:20;15.30;67.90